Time;durP1;ratioP1;P1;durP2;ratioP2;P2;SDS_P1;SDS_P2;PMS_P1;PMS_P2;Temp;Humidity;BMP_temperature;BMP_pressure;BME280_temperature;BME280_humidity;BME280_pressure;Samples;Min_cycle;Max_cycle;Signal;HPM_P1;HPM_P2
2022/06/21 00:02:12;;;;;;;5.47;1.60;;;;;;;18.00;42.37;97938.00;8480769;28;20346;-83
2022/06/21 00:06:20;;;;;;;3.97;1.60;;;;;;;17.89;42.71;97944.03;8447639;28;20245;-85
2022/06/21 00:10:24;;;;;;;4.37;2.13;;;;;;;17.80;42.97;97944.72;8472547;28;20426;-82
2022/06/21 00:14:27;;;;;;;3.40;1.73;;;;;;;17.75;43.07;97937.19;8481138;28;20290;-83
2022/06/21 00:18:32;;;;;;;2.50;1.70;;;;;;;17.58;43.28;97934.97;8480841;28;20236;-83
2022/06/21 00:22:36;;;;;;;5.87;1.60;;;;;;;17.61;43.37;97931.28;8480867;28;20233;-84
2022/06/21 00:26:39;;;;;;;3.53;1.80;;;;;;;17.38;43.61;97931.19;8480374;28;20398;-84
2022/06/21 00:30:42;;;;;;;4.20;2.00;;;;;;;17.51;43.32;97936.34;8480567;28;20248;-84
2022/06/21 00:34:46;;;;;;;5.73;1.93;;;;;;;17.51;43.38;97936.34;8480354;28;20521;-84
2022/06/21 00:38:51;;;;;;;3.20;1.50;;;;;;;17.15;43.89;97940.69;8480505;28;20225;-84
2022/06/21 00:43:05;;;;;;;2.97;1.60;;;;;;;17.13;44.23;97943.41;8480539;28;20240;-84
2022/06/21 00:47:14;;;;;;;4.77;1.60;;;;;;;17.28;44.01;97945.88;8480530;28;20229;-83
2022/06/21 00:51:21;;;;;;;2.80;1.60;;;;;;;17.23;43.94;97943.63;8480374;28;20226;-84
2022/06/21 00:55:31;;;;;;;3.73;1.90;;;;;;;17.18;44.02;97946.53;8454672;28;20230;-83
2022/06/21 00:59:35;;;;;;;4.37;1.80;;;;;;;17.26;44.01;97950.41;8446617;28;20238;-83
2022/06/21 01:03:40;;;;;;;1.93;1.50;;;;;;;17.23;44.06;97950.59;8477599;28;20232;-83
2022/06/21 01:07:44;;;;;;;2.83;1.60;;;;;;;17.07;43.96;97946.47;8471953;22;20223;-76
2022/06/21 01:11:52;;;;;;;4.83;1.90;;;;;;;17.08;44.15;97945.53;8418561;28;20230;-77
2022/06/21 01:15:55;;;;;;;3.37;1.63;;;;;;;17.06;44.31;97943.97;8418635;28;20230;-76
2022/06/21 01:20:01;;;;;;;3.67;1.80;;;;;;;17.06;44.22;97949.19;8418383;28;20381;-77
2022/06/21 01:24:11;;;;;;;2.87;1.60;;;;;;;17.02;44.45;97947.75;8418423;28;20229;-76
2022/06/21 01:28:16;;;;;;;2.63;1.70;;;;;;;17.16;44.08;97937.97;8418127;28;20230;-77
2022/06/21 01:32:18;;;;;;;4.73;1.80;;;;;;;16.90;44.61;97945.03;8418039;28;20234;-78
2022/06/21 01:36:23;;;;;;;2.57;1.50;;;;;;;16.93;44.55;97947.47;8417939;28;20235;-78
2022/06/21 01:40:29;;;;;;;2.43;1.30;;;;;;;17.04;44.30;97951.09;8417405;28;20235;-76
2022/06/21 01:44:36;;;;;;;4.50;1.90;;;;;;;16.88;44.61;97946.09;8417923;28;20242;-77
2022/06/21 01:48:43;;;;;;;3.53;1.80;;;;;;;16.99;44.55;97947.00;8417657;28;20234;-77
2022/06/21 01:52:48;;;;;;;3.23;1.90;;;;;;;16.85;44.41;97948.94;8417471;28;20229;-77
2022/06/21 01:56:51;;;;;;;2.07;1.43;;;;;;;16.86;44.49;97940.16;8417483;28;20454;-77
2022/06/21 02:00:59;;;;;;;3.33;1.87;;;;;;;16.73;44.66;97942.75;8417524;28;20233;-77
2022/06/21 02:05:08;;;;;;;3.67;1.77;;;;;;;16.72;44.76;97938.47;8416830;28;20227;-77
2022/06/21 02:09:16;;;;;;;2.93;1.80;;;;;;;16.75;44.66;97943.47;8416873;28;20231;-78
2022/06/21 02:13:24;;;;;;;6.07;1.93;;;;;;;16.74;44.31;97933.97;8416413;28;20233;-77
2022/06/21 02:17:31;;;;;;;3.00;1.80;;;;;;;16.68;44.52;97931.78;8416240;28;20325;-77
2022/06/21 02:21:37;;;;;;;3.47;1.50;;;;;;;16.65;44.68;97922.38;8416562;28;20235;-77
2022/06/21 02:25:40;;;;;;;3.53;1.80;;;;;;;16.65;44.90;97918.94;8416566;28;20547;-77
2022/06/21 02:29:45;;;;;;;4.00;1.80;;;;;;;16.60;45.31;97920.09;8416249;28;20238;-78
2022/06/21 02:33:50;;;;;;;3.43;1.50;;;;;;;16.63;45.04;97921.66;8416480;28;20249;-77
2022/06/21 02:37:56;;;;;;;5.43;1.90;;;;;;;16.56;44.75;97925.63;8415789;28;20230;-77
2022/06/21 02:42:03;;;;;;;4.07;1.77;;;;;;;16.46;45.01;97909.75;8415848;28;20230;-78
2022/06/21 02:46:09;;;;;;;5.03;1.97;;;;;;;16.44;45.18;97901.19;8416129;28;20223;-77
2022/06/21 02:50:25;;;;;;;2.87;1.90;;;;;;;16.37;45.52;97902.53;8415619;28;20238;-77
2022/06/21 02:54:33;;;;;;;3.90;2.13;;;;;;;16.45;45.07;97902.84;8414981;28;20242;-77
2022/06/21 02:58:38;;;;;;;3.27;1.70;;;;;;;16.33;45.39;97908.91;8415196;28;20241;-77
2022/06/21 03:02:40;;;;;;;3.87;1.90;;;;;;;16.40;44.97;97913.63;8414962;28;20241;-77
2022/06/21 03:06:45;;;;;;;4.03;1.80;;;;;;;16.30;45.45;97912.59;8415119;28;20590;-76
2022/06/21 03:10:50;;;;;;;3.90;2.03;;;;;;;16.15;45.77;97908.41;8414960;28;20230;-77
2022/06/21 03:14:55;;;;;;;3.57;1.70;;;;;;;16.12;46.05;97898.16;8414754;28;20226;-77
2022/06/21 03:19:01;;;;;;;2.77;2.00;;;;;;;16.09;46.17;97891.38;8414474;28;20222;-77
2022/06/21 03:23:06;;;;;;;4.63;1.90;;;;;;;15.98;46.15;97883.44;8414593;28;20226;-77
2022/06/21 03:27:15;;;;;;;5.37;2.10;;;;;;;16.09;46.30;97887.91;8413668;28;20239;-77
2022/06/21 03:31:22;;;;;;;4.73;1.70;;;;;;;16.05;45.92;97886.44;8414552;28;20231;-77
2022/06/21 03:35:26;;;;;;;4.53;1.90;;;;;;;16.08;45.79;97899.31;8413892;28;20233;-76
2022/06/21 03:43:50;;;;;;;3.27;1.90;;;;;;;15.99;45.94;97904.22;8380843;28;20223;-76
2022/06/21 03:47:57;;;;;;;2.73;1.80;;;;;;;15.95;46.16;97902.72;8413764;28;20237;-77
2022/06/21 03:52:01;;;;;;;5.80;2.10;;;;;;;15.93;46.31;97912.44;8413762;28;20234;-77
2022/06/21 03:56:10;;;;;;;2.87;1.80;;;;;;;15.97;46.50;97911.34;8413973;28;20249;-77
2022/06/21 04:00:14;;;;;;;3.57;1.90;;;;;;;16.04;46.79;97911.75;8413777;28;20235;-77
2022/06/21 04:04:24;;;;;;;2.67;2.20;;;;;;;16.05;46.30;97917.78;8413672;28;20241;-77
2022/06/21 04:08:32;;;;;;;4.03;2.10;;;;;;;16.26;45.95;97921.59;8413239;28;20231;-76
2022/06/21 04:12:42;;;;;;;4.53;2.10;;;;;;;16.38;45.86;97932.97;8413573;28;20241;-76
2022/06/21 04:16:49;;;;;;;3.83;2.40;;;;;;;16.16;46.53;97924.00;8413441;28;20413;-77
2022/06/21 04:20:54;;;;;;;5.73;2.30;;;;;;;16.26;46.46;97929.41;8413440;28;20285;-76
2022/06/21 04:25:02;;;;;;;3.30;2.30;;;;;;;16.36;46.38;97924.41;8413512;28;20230;-77
2022/06/21 04:29:10;;;;;;;4.53;2.40;;;;;;;16.37;46.73;97924.28;8413200;28;20231;-77
2022/06/21 04:33:15;;;;;;;6.57;2.50;;;;;;;16.42;46.98;97910.91;8413343;28;20253;-77
2022/06/21 04:37:23;;;;;;;5.50;2.40;;;;;;;16.49;46.79;97922.63;8417397;28;20235;-76
2022/06/21 04:41:32;;;;;;;3.93;2.30;;;;;;;16.52;47.01;97914.53;8419361;28;20230;-76
2022/06/21 04:45:39;;;;;;;5.40;2.33;;;;;;;16.51;47.22;97917.28;8419548;28;20237;-77
2022/06/21 04:49:45;;;;;;;4.63;2.70;;;;;;;16.56;47.13;97918.63;8419480;28;20575;-77
2022/06/21 04:53:52;;;;;;;6.00;2.67;;;;;;;16.74;46.67;97919.13;8419059;28;20231;-77
2022/06/21 04:57:54;;;;;;;4.83;2.90;;;;;;;16.76;47.43;97900.72;8419305;28;20234;-79
2022/06/21 05:01:59;;;;;;;4.50;2.60;;;;;;;16.93;46.93;97899.53;8418809;28;20253;-78
2022/06/21 05:06:02;;;;;;;6.23;2.87;;;;;;;16.88;47.17;97894.63;8418880;28;20300;-78
2022/06/21 05:10:06;;;;;;;3.77;2.90;;;;;;;17.01;47.05;97899.81;8418928;28;20234;-78
2022/06/21 05:14:17;;;;;;;4.13;2.77;;;;;;;17.12;46.52;97899.06;8418642;28;20248;-77
2022/06/21 05:18:26;;;;;;;3.70;2.63;;;;;;;17.02;46.90;97879.72;8418508;28;20398;-77
2022/06/21 05:22:31;;;;;;;7.63;2.87;;;;;;;17.08;47.77;97872.28;8418251;28;20231;-77
2022/06/21 05:26:38;;;;;;;4.80;2.87;;;;;;;17.23;47.06;97869.47;8418232;28;20231;-78
2022/06/21 05:30:43;;;;;;;5.07;2.77;;;;;;;17.10;47.75;97870.38;8417974;28;20235;-78
2022/06/21 05:34:50;;;;;;;4.90;3.00;;;;;;;16.87;48.07;97865.97;8418412;28;20233;-79
2022/06/21 05:38:56;;;;;;;7.93;3.43;;;;;;;16.71;49.41;97876.66;8418053;28;20516;-78
2022/06/21 05:42:59;;;;;;;6.73;3.00;;;;;;;17.37;47.72;97874.56;8417687;28;20231;-78
2022/06/21 05:47:07;;;;;;;7.73;3.07;;;;;;;17.48;47.19;97864.13;8417173;28;20231;-78
2022/06/21 05:51:15;;;;;;;9.20;3.20;;;;;;;17.46;46.96;97871.25;8417891;28;20231;-78
2022/06/21 05:55:24;;;;;;;6.63;3.27;;;;;;;17.80;46.59;97879.22;8406332;28;20239;-78
2022/06/21 05:59:27;;;;;;;7.53;3.33;;;;;;;18.13;45.54;97895.97;8383787;28;20235;-77
2022/06/21 06:03:33;;;;;;;10.47;2.90;;;;;;;18.39;45.36;97887.88;8403145;28;20239;-77
2022/06/21 06:07:40;;;;;;;5.90;3.10;;;;;;;18.71;44.50;97893.25;8416998;28;20235;-77
2022/06/21 06:12:01;;;;;;;5.83;3.07;;;;;;;18.79;44.22;97906.59;8417214;28;20230;-78
2022/06/21 06:16:22;;;;;;;7.40;3.33;;;;;;;18.91;43.96;97903.03;8416683;28;20234;-76
2022/06/21 06:20:33;;;;;;;6.23;3.30;;;;;;;19.13;43.19;97906.56;8416371;28;20333;-76
2022/06/21 06:24:43;;;;;;;8.00;3.27;;;;;;;19.17;43.71;97900.09;8416786;28;20234;-76
2022/06/21 06:28:49;;;;;;;8.63;3.30;;;;;;;19.39;43.03;97896.56;8416159;28;20227;-77
2022/06/21 06:33:03;;;;;;;8.90;3.20;;;;;;;19.41;43.24;97897.28;8416214;28;20526;-78
2022/06/21 06:37:08;;;;;;;9.30;3.20;;;;;;;19.65;42.84;97906.75;8416069;28;20222;-77
2022/06/21 06:41:16;;;;;;;7.83;3.03;;;;;;;19.29;43.28;97914.88;8415997;28;20238;-77
2022/06/21 06:45:21;;;;;;;8.90;3.20;;;;;;;19.60;42.96;97908.91;8415839;28;20235;-77
2022/06/21 06:49:28;;;;;;;6.90;2.67;;;;;;;19.88;42.95;97918.84;8415251;28;20343;-76
2022/06/21 06:53:36;;;;;;;7.13;2.87;;;;;;;20.30;42.34;97931.13;8415507;28;20444;-76
2022/06/21 06:57:44;;;;;;;8.07;2.70;;;;;;;20.49;42.71;97920.69;8415475;28;20235;-77
2022/06/21 07:01:57;;;;;;;4.73;2.00;;;;;;;20.68;42.70;97930.50;8414427;28;20227;-76
2022/06/21 07:06:03;;;;;;;7.97;2.47;;;;;;;20.78;41.70;97930.53;8415025;28;20429;-79
2022/06/21 07:10:12;;;;;;;6.83;2.77;;;;;;;21.11;40.75;97918.00;8415066;28;20231;-76
2022/06/21 07:14:20;;;;;;;5.70;2.57;;;;;;;21.28;40.42;97917.38;8415190;28;20289;-76
2022/06/21 07:18:28;;;;;;;8.07;2.20;;;;;;;21.48;40.75;97920.03;8414040;28;20235;-77
2022/06/21 07:22:39;;;;;;;7.83;3.80;;;;;;;21.02;41.07;97916.22;8414661;28;20232;-77
2022/06/21 07:26:47;;;;;;;7.50;2.70;;;;;;;21.61;40.19;97912.69;8414614;28;20254;-77
2022/06/21 07:30:53;;;;;;;5.73;3.00;;;;;;;21.96;39.57;97902.53;8414248;28;20227;-77
2022/06/21 07:34:59;;;;;;;5.70;2.80;;;;;;;22.04;38.80;97906.13;8414382;28;20231;-78
2022/06/21 07:39:06;;;;;;;6.43;2.20;;;;;;;22.46;37.77;97918.13;8414361;28;20550;-77
2022/06/21 07:43:19;;;;;;;11.30;2.90;;;;;;;22.09;36.60;97905.72;8414305;28;20288;-78
2022/06/21 07:47:27;;;;;;;12.03;2.60;;;;;;;22.81;36.36;97906.03;8413577;28;20227;-77
2022/06/21 07:51:34;;;;;;;9.83;2.30;;;;;;;23.32;40.58;97904.66;8397472;28;20245;-77
2022/06/21 07:55:38;;;;;;;5.77;2.63;;;;;;;23.27;35.12;97904.25;8380778;28;20231;-77
2022/06/21 07:59:44;;;;;;;13.63;2.80;;;;;;;22.78;34.33;97898.41;8380682;28;20302;-76
2022/06/21 08:08:19;;;;;;;6.57;2.67;;;;;;;23.60;32.56;97912.50;8413516;28;20433;-75
2022/06/21 08:12:22;;;;;;;10.47;2.33;;;;;;;24.36;34.37;97911.09;8413091;28;20530;-76
2022/06/21 08:16:37;;;;;;;7.10;2.20;;;;;;;24.50;33.64;97910.50;8413689;28;20235;-74
2022/06/21 08:20:49;;;;;;;5.47;2.13;;;;;;;24.80;32.33;97910.19;8413349;28;20234;-75
2022/06/21 08:24:55;;;;;;;5.87;2.30;;;;;;;24.03;31.30;97900.31;8413421;28;20226;-74
2022/06/21 08:29:01;;;;;;;5.77;2.20;;;;;;;24.80;32.53;97889.81;8413389;28;20223;-74
2022/06/21 08:33:08;;;;;;;5.80;1.97;;;;;;;25.11;32.21;97891.88;8413466;28;20229;-75
2022/06/21 08:37:15;;;;;;;6.47;2.07;;;;;;;24.75;31.27;97897.41;8413228;28;20428;-76
2022/06/21 08:41:54;;;;;;;6.20;2.23;;;;;;;24.84;30.49;97903.56;8413467;28;20231;-76
2022/06/21 08:46:27;;;;;;;5.97;2.37;;;;;;;24.94;31.06;97910.41;8408952;28;20230;-75
2022/06/21 08:50:41;;;;;;;6.13;2.30;;;;;;;25.37;29.77;97899.75;8379192;28;20246;-76
2022/06/21 08:54:52;;;;;;;6.57;1.87;;;;;;;25.88;30.37;97892.47;8379954;28;20243;-76
2022/06/21 08:59:04;;;;;;;6.17;2.00;;;;;;;25.79;29.69;97895.31;8379537;28;20230;-76
2022/06/21 09:03:24;;;;;;;11.43;2.00;;;;;;;26.28;28.50;97884.66;8380116;28;20289;-76
2022/06/21 09:07:44;;;;;;;6.03;2.07;;;;;;;26.61;28.29;97877.44;8378783;28;20240;-76
2022/06/21 09:11:55;;;;;;;9.47;2.10;;;;;;;26.43;29.04;97874.16;8379377;28;20540;-76
2022/06/21 09:16:03;;;;;;;6.53;2.43;;;;;;;26.08;26.78;97858.50;8379560;28;20574;-76
2022/06/21 09:20:25;;;;;;;7.20;2.10;;;;;;;26.26;25.67;97860.13;8379463;28;20223;-76
2022/06/21 09:24:57;;;;;;;8.90;1.77;;;;;;;25.94;25.22;97838.78;8383607;28;20234;-74
2022/06/21 09:29:07;;;;;;;8.67;2.00;;;;;;;25.99;24.58;97842.75;8385193;28;20233;-75
2022/06/21 09:33:15;;;;;;;5.03;1.80;;;;;;;25.32;26.10;97830.50;8385324;28;20240;-76
2022/06/21 09:37:27;;;;;;;2.63;1.53;;;;;;;25.67;25.88;97797.53;8385176;28;20242;-79
2022/06/21 09:41:39;;;;;;;8.10;1.90;;;;;;;25.21;27.18;97810.44;8384480;28;20520;-76
2022/06/21 09:45:48;;;;;;;3.90;1.73;;;;;;;25.25;26.42;97813.63;8384955;28;20241;-76
2022/06/21 09:49:54;;;;;;;4.73;1.73;;;;;;;25.72;25.84;97807.63;8385224;28;20515;-76
2022/06/21 09:54:15;;;;;;;3.80;1.40;;;;;;;26.53;25.07;97801.25;8385142;28;20237;-76
2022/06/21 09:58:23;;;;;;;8.03;1.93;;;;;;;26.51;24.04;97813.06;8384392;28;20428;-76
2022/06/21 10:02:36;;;;;;;3.53;1.40;;;;;;;27.34;24.60;97798.34;8383843;28;20229;-76
2022/06/21 10:06:44;;;;;;;9.90;1.70;;;;;;;26.70;24.72;97801.22;8382918;28;20241;-77
2022/06/21 10:10:57;;;;;;;5.47;1.50;;;;;;;27.00;25.04;97798.72;8383928;28;20258;-81
2022/06/21 10:15:14;;;;;;;4.33;1.63;;;;;;;27.39;25.02;97806.56;8385991;28;20422;-77
2022/06/21 10:19:26;;;;;;;3.63;1.43;;;;;;;26.43;24.53;97802.50;8383745;28;20242;-77
2022/06/21 10:23:40;;;;;;;4.37;1.60;;;;;;;26.90;24.95;97802.44;8383148;28;20257;-76
2022/06/21 10:28:15;;;;;;;3.07;1.40;;;;;;;26.65;24.68;97808.88;8408112;28;20245;-76
2022/06/21 10:32:32;;;;;;;3.40;1.63;;;;;;;27.51;23.64;97799.00;8414326;28;20523;-75
2022/06/21 10:37:03;;;;;;;4.33;1.40;;;;;;;27.73;24.24;97783.19;8406447;28;20269;-75
2022/06/21 10:41:14;;;;;;;4.20;1.33;;;;;;;27.50;23.90;97776.91;8381367;28;20230;-74
2022/06/21 10:45:33;;;;;;;2.53;1.40;;;;;;;27.69;24.08;97777.41;8383204;28;20244;-75
2022/06/21 10:49:49;;;;;;;4.50;1.92;;;;;;;27.40;24.58;97763.03;8381668;28;20436;-75
2022/06/21 10:54:17;;;;;;;4.37;1.53;;;;;;;27.06;24.40;97763.47;8382668;28;20237;-74
2022/06/21 10:58:31;;;;;;;3.47;1.50;;;;;;;27.85;22.96;97758.63;8379819;28;20240;-76
2022/06/21 11:02:59;;;;;;;4.77;1.60;;;;;;;27.72;23.04;97745.13;8393837;28;20240;-76
2022/06/21 11:07:08;;;;;;;4.00;1.40;;;;;;;28.15;23.58;97742.66;8382278;28;20253;-76
2022/06/21 11:11:15;;;;;;;4.23;1.50;;;;;;;28.69;23.51;97722.78;8414888;28;20247;-76
2022/06/21 11:15:24;;;;;;;6.07;1.43;;;;;;;28.34;23.52;97733.25;8414866;28;20235;-76
2022/06/21 11:19:33;;;;;;;2.97;1.30;;;;;;;28.42;22.95;97733.13;8414376;28;20236;-77
2022/06/21 11:23:47;;;;;;;4.20;1.60;;;;;;;27.88;23.36;97741.44;8414469;28;20429;-76
2022/06/21 11:27:59;;;;;;;2.67;1.20;;;;;;;28.24;21.49;97736.22;8414604;28;20232;-76
2022/06/21 11:32:09;;;;;;;2.50;1.23;;;;;;;28.68;22.37;97731.81;8414642;28;20303;-75
2022/06/21 11:36:16;;;;;;;4.20;1.37;;;;;;;28.86;22.33;97715.38;8414349;28;20227;-76
2022/06/21 11:40:30;;;;;;;3.40;1.40;;;;;;;28.53;21.74;97725.72;8414552;28;20396;-77
2022/06/21 11:44:55;;;;;;;4.43;1.50;;;;;;;29.21;22.01;97726.19;8413901;28;20227;-76
2022/06/21 11:49:38;;;;;;;4.77;1.30;;;;;;;29.28;21.75;97718.22;8414239;28;20235;-76
2022/06/21 11:53:52;;;;;;;3.17;1.37;;;;;;;28.87;21.77;97710.91;8413931;28;20226;-77
2022/06/21 11:58:00;;;;;;;5.63;1.43;;;;;;;26.86;21.66;97712.63;8413982;28;20241;-77
2022/06/21 12:02:14;;;;;;;5.43;1.53;;;;;;;27.16;21.21;97710.88;8413872;28;20244;-76
2022/06/21 12:06:25;;;;;;;3.70;1.00;;;;;;;27.02;21.89;97701.88;8414025;28;20237;-76
2022/06/21 12:10:57;;;;;;;4.77;1.30;;;;;;;27.60;21.61;97701.34;8413386;28;20233;-76
2022/06/21 12:15:16;;;;;;;4.53;1.10;;;;;;;27.05;20.40;97698.84;8413725;28;20511;-76
2022/06/21 12:19:23;;;;;;;9.63;2.10;;;;;;;27.61;20.60;97682.56;8413756;28;20248;-76
2022/06/21 12:23:36;;;;;;;5.47;1.17;;;;;;;27.80;20.17;97678.50;8413126;28;20233;-76
2022/06/21 12:27:39;;;;;;;3.07;1.10;;;;;;;27.02;21.13;97667.34;8413423;28;20231;-76
2022/06/21 12:31:47;;;;;;;4.20;1.10;;;;;;;26.28;22.18;97659.06;8413689;28;20553;-76
2022/06/21 12:36:14;;;;;;;3.50;1.10;;;;;;;26.96;21.97;97644.16;8413628;28;20235;-76
2022/06/21 12:40:27;;;;;;;4.70;1.23;;;;;;;26.89;22.20;97644.03;8412991;28;20588;-76
2022/06/21 12:44:43;;;;;;;3.60;1.20;;;;;;;27.45;22.42;97641.00;8412969;28;20423;-75
2022/06/21 12:49:17;;;;;;;2.40;1.27;;;;;;;28.60;22.37;97636.88;8413219;28;20233;-77
2022/06/21 12:53:55;;;;;;;3.60;1.03;;;;;;;28.59;22.34;97635.22;8400070;28;20236;-77
2022/06/21 12:58:07;;;;;;;4.23;1.37;;;;;;;28.50;22.73;97632.84;8346669;28;20230;-77
2022/06/21 13:02:41;;;;;;;5.83;1.40;;;;;;;27.50;24.54;97633.31;8418789;28;20236;-76
2022/06/21 13:07:00;;;;;;;2.60;1.20;;;;;;;28.81;22.71;97606.72;8418652;28;20236;-77
2022/06/21 13:11:16;;;;;;;7.93;1.87;;;;;;;28.11;21.30;97596.81;8419323;28;20325;-77
2022/06/21 13:15:39;;;;;;;3.35;1.30;;;;;;;28.02;21.70;97599.59;8417614;28;20412;-77
2022/06/21 13:19:54;;;;;;;2.93;1.17;;;;;;;27.82;20.64;97571.91;8418989;28;20251;-76
2022/06/21 13:24:09;;;;;;;3.93;1.40;;;;;;;28.78;20.96;97561.78;8418686;28;20299;-76
2022/06/21 13:28:45;;;;;;;3.28;1.25;;;;;;;28.78;20.09;97560.97;8417182;28;20412;-76
2022/06/21 13:32:55;;;;;;;5.70;1.40;;;;;;;28.48;19.68;97558.47;8403938;28;20222;-76
2022/06/21 13:37:01;;;;;;;1.50;0.90;;;;;;;29.02;18.50;97579.19;8418447;28;20229;-77
2022/06/21 13:41:07;;;;;;;2.13;1.10;;;;;;;29.11;17.81;97576.38;8418441;28;20242;-76
2022/06/21 13:45:31;;;;;;;4.13;1.20;;;;;;;28.39;18.37;97562.28;8418345;28;20530;-76
2022/06/21 13:49:47;;;;;;;2.67;1.10;;;;;;;29.30;18.42;97577.53;8416199;28;20400;-77
2022/06/21 13:53:51;;;;;;;2.93;1.00;;;;;;;29.00;17.90;97562.56;8417669;28;20433;-77
2022/06/21 13:58:01;;;;;;;3.77;1.10;;;;;;;29.46;18.44;97569.22;8417922;28;20229;-77
2022/06/21 14:02:09;;;;;;;4.43;1.03;;;;;;;29.34;17.29;97576.13;8410372;28;20235;-77
2022/06/21 14:06:19;;;;;;;1.77;1.07;;;;;;;28.93;17.73;97569.69;8384067;28;20305;-77
2022/06/21 14:10:25;;;;;;;2.67;1.10;;;;;;;29.08;17.40;97561.59;8383610;28;20234;-77
2022/06/21 14:14:33;;;;;;;3.50;1.00;;;;;;;29.61;17.66;97556.56;8384287;28;20235;-76
2022/06/21 14:18:45;;;;;;;2.33;1.00;;;;;;;29.27;17.48;97546.75;8415193;28;20541;-77
2022/06/21 14:22:52;;;;;;;1.23;0.90;;;;;;;29.10;17.39;97534.75;8417286;28;20406;-76
2022/06/21 14:26:59;;;;;;;2.37;0.70;;;;;;;28.35;15.75;97518.41;8416608;28;20229;-77
2022/06/21 14:31:05;;;;;;;2.00;0.63;;;;;;;29.09;14.92;97509.09;8417438;28;20232;-77
2022/06/21 14:35:13;;;;;;;3.07;0.63;;;;;;;28.84;15.05;97501.59;8417017;28;20249;-77
2022/06/21 14:39:21;;;;;;;3.90;1.00;;;;;;;28.90;14.44;97495.50;8416416;28;20233;-77
2022/06/21 14:43:37;;;;;;;1.80;0.70;;;;;;;29.20;14.08;97500.56;8415075;28;20234;-77
2022/06/21 14:47:44;;;;;;;1.33;0.60;;;;;;;29.20;14.79;97493.41;8415606;28;20234;-77
2022/06/21 14:51:53;;;;;;;2.43;0.77;;;;;;;29.18;14.79;97495.44;8416113;28;20519;-75
2022/06/21 14:56:07;;;;;;;4.10;0.90;;;;;;;29.33;15.94;97481.16;8415500;28;20421;-75
2022/06/21 15:00:31;;;;;;;4.73;0.80;;;;;;;29.12;15.11;97485.53;8414696;28;20234;-77
2022/06/21 15:04:57;;;;;;;2.63;1.10;;;;;;;29.41;16.00;97465.78;8415484;28;20236;-76
2022/06/21 15:09:10;;;;;;;2.40;0.97;;;;;;;29.14;16.65;97453.38;8410827;28;20529;-75
2022/06/21 15:13:17;;;;;;;4.27;1.20;;;;;;;28.63;17.47;97463.31;8382116;28;20239;-77
2022/06/21 15:17:26;;;;;;;3.50;1.20;;;;;;;28.71;16.67;97459.72;8395779;28;20232;-75
2022/06/21 15:21:32;;;;;;;2.53;0.80;;;;;;;28.90;16.80;97468.84;8414279;28;20230;-75
2022/06/21 15:25:48;;;;;;;2.40;0.80;;;;;;;28.47;15.74;97469.75;8414949;28;20230;-76
2022/06/21 15:29:54;;;;;;;2.43;1.10;;;;;;;28.15;16.27;97479.13;8415290;28;20451;-76
2022/06/21 15:34:00;;;;;;;2.60;0.90;;;;;;;28.61;16.33;97481.34;8414952;28;20239;-76
2022/06/21 15:38:06;;;;;;;1.27;0.87;;;;;;;28.79;16.91;97474.72;8414731;28;20225;-76
2022/06/21 15:42:22;;;;;;;2.97;1.00;;;;;;;29.10;17.87;97454.78;8412600;28;20615;-76
2022/06/21 15:46:27;;;;;;;2.40;1.10;;;;;;;28.90;17.43;97417.38;8414029;28;20229;-75
2022/06/21 15:50:42;;;;;;;3.57;1.10;;;;;;;29.01;17.99;97425.63;8414231;28;20236;-75
2022/06/21 15:54:49;;;;;;;4.67;1.20;;;;;;;28.62;16.74;97429.75;8414156;28;20284;-75
2022/06/21 15:59:08;;;;;;;3.10;0.90;;;;;;;28.66;16.88;97435.50;8413956;28;20237;-75
2022/06/21 16:03:16;;;;;;;4.53;0.97;;;;;;;28.65;17.21;97433.84;8414139;28;20449;-75
2022/06/21 16:07:22;;;;;;;4.00;0.93;;;;;;;28.44;17.37;97437.38;8413918;28;20238;-75
2022/06/21 16:11:27;;;;;;;2.80;1.17;;;;;;;28.46;17.30;97433.50;8413366;28;20244;-77
2022/06/21 16:15:33;;;;;;;4.40;1.10;;;;;;;28.27;17.22;97424.38;8414009;28;20544;-75
2022/06/21 16:19:46;;;;;;;2.73;0.97;;;;;;;28.42;17.54;97432.22;8414190;28;20269;-77
2022/06/21 16:23:54;;;;;;;5.63;1.20;;;;;;;28.03;18.05;97435.44;8414189;28;20229;-76
2022/06/21 16:28:03;;;;;;;3.30;1.30;;;;;;;28.08;17.54;97427.69;8413561;28;20230;-76
2022/06/21 16:36:36;;;;;;;2.97;0.87;;;;;;;28.07;17.82;97432.19;8419695;28;20232;-76
2022/06/21 16:45:08;;;;;;;1.57;0.80;;;;;;;28.24;18.62;97430.06;8393292;28;20228;-82
2022/06/21 16:49:17;;;;;;;4.03;1.50;;;;;;;28.07;18.63;97410.06;8411503;28;20242;-79
2022/06/21 16:53:23;;;;;;;2.60;1.20;;;;;;;28.05;18.74;97402.28;8419483;28;20542;-76
2022/06/21 16:57:28;;;;;;;4.73;2.07;;;;;;;27.92;18.95;97398.69;8402885;28;20237;-77
2022/06/21 17:01:40;;;;;;;7.93;3.27;;;;;;;27.67;19.49;97397.22;8388933;28;20229;-77
2022/06/21 17:05:47;;;;;;;4.40;1.40;;;;;;;27.62;19.14;97388.16;8419088;28;20233;-76
2022/06/21 17:09:52;;;;;;;5.50;1.30;;;;;;;27.50;19.59;97378.03;8419210;28;20243;-78
2022/06/21 17:14:04;;;;;;;3.63;1.50;;;;;;;27.45;19.83;97383.09;8418892;28;20547;-77
2022/06/21 17:18:10;;;;;;;2.57;1.30;;;;;;;27.35;20.33;97387.91;8418777;28;20227;-75
2022/06/21 17:22:20;;;;;;;5.43;1.83;;;;;;;27.14;20.03;97399.31;8418643;28;20316;-77
2022/06/21 17:26:30;;;;;;;4.97;1.97;;;;;;;27.16;20.87;97399.13;8418242;28;20223;-76
2022/06/21 17:30:37;;;;;;;2.70;1.30;;;;;;;27.16;20.56;97399.94;8417728;28;20255;-77
2022/06/21 17:34:44;;;;;;;4.13;1.50;;;;;;;27.04;20.08;97399.59;8418262;28;20240;-75
2022/06/21 17:38:53;;;;;;;1.60;1.07;;;;;;;26.92;20.96;97398.41;8418318;28;20238;-77
2022/06/21 17:43:07;;;;;;;4.20;1.47;;;;;;;26.89;20.93;97410.25;8417362;28;20289;-77
2022/06/21 17:47:13;;;;;;;4.27;1.37;;;;;;;26.92;20.66;97417.84;8418261;28;20260;-76
2022/06/21 17:51:20;;;;;;;4.23;1.20;;;;;;;26.89;20.92;97417.41;8418005;28;20249;-76
2022/06/21 17:55:27;;;;;;;5.37;1.30;;;;;;;26.88;21.03;97415.75;8417405;28;20242;-76
2022/06/21 17:59:32;;;;;;;2.60;1.00;;;;;;;26.94;20.69;97409.72;8417454;28;20242;-74
2022/06/21 18:03:49;;;;;;;2.07;1.10;;;;;;;26.86;21.17;97397.31;8417325;28;20259;-74
2022/06/21 18:07:58;;;;;;;2.47;1.20;;;;;;;26.84;20.94;97387.91;8417386;28;20234;-76
2022/06/21 18:12:10;;;;;;;2.30;1.30;;;;;;;26.74;21.10;97392.69;8417644;28;20231;-76
2022/06/21 18:16:24;;;;;;;5.13;1.00;;;;;;;26.58;21.58;97377.72;8416921;28;20229;-75
2022/06/21 18:20:33;;;;;;;2.20;1.10;;;;;;;26.46;21.78;97372.88;8416640;28;20522;-75
2022/06/21 18:24:46;;;;;;;3.30;1.10;;;;;;;26.42;22.22;97374.25;8416750;28;20239;-75
2022/06/21 18:29:00;;;;;;;3.60;1.33;;;;;;;26.31;22.13;97359.63;8417049;28;20555;-75
2022/06/21 18:33:05;;;;;;;2.87;1.23;;;;;;;26.31;22.95;97370.25;8416550;28;20235;-75
2022/06/21 18:37:16;;;;;;;2.67;1.27;;;;;;;26.22;23.20;97370.50;8416533;28;20225;-75
2022/06/21 18:41:24;;;;;;;3.37;1.37;;;;;;;26.07;23.15;97373.13;8415846;28;20231;-76
2022/06/21 18:45:39;;;;;;;3.03;1.10;;;;;;;26.03;23.06;97379.81;8414785;28;20246;-75
2022/06/21 18:49:48;;;;;;;4.78;1.40;;;;;;;26.49;23.01;97366.38;8413240;28;20542;-77
2022/06/21 18:54:02;;;;;;;3.30;1.23;;;;;;;26.03;23.88;97364.72;8381981;28;20238;-75
2022/06/21 18:58:16;;;;;;;9.30;1.80;;;;;;;25.87;25.82;97359.53;8382113;28;20531;-76
2022/06/21 19:02:25;;;;;;;7.67;1.50;;;;;;;25.74;26.52;97349.50;8382254;28;20242;-75
2022/06/21 19:11:03;;;;;;;3.30;1.40;;;;;;;25.66;27.63;97349.59;8381811;28;20229;-76
2022/06/21 19:15:15;;;;;;;4.90;1.37;;;;;;;25.58;27.79;97357.63;8381583;28;20233;-75
2022/06/21 19:19:39;;;;;;;9.37;1.70;;;;;;;25.51;28.74;97368.94;8381679;28;20235;-75
2022/06/21 19:24:03;;;;;;;5.03;1.70;;;;;;;25.40;28.68;97374.66;8381049;28;20268;-75
2022/06/21 19:28:16;;;;;;;5.53;1.50;;;;;;;25.40;29.66;97382.59;8380840;28;20248;-75
2022/06/21 19:32:52;;;;;;;4.47;1.60;;;;;;;25.37;30.90;97390.91;8401630;28;20232;-75
2022/06/21 19:37:07;;;;;;;3.20;1.50;;;;;;;25.32;29.17;97385.28;8413829;28;20229;-75
2022/06/21 19:41:18;;;;;;;8.77;1.87;;;;;;;25.28;31.22;97387.47;8413731;28;20235;-79
2022/06/21 19:45:30;;;;;;;6.33;1.97;;;;;;;25.20;31.41;97373.44;8413568;28;20240;-77
2022/06/21 19:49:35;;;;;;;8.00;1.43;;;;;;;25.15;31.33;97379.22;8410424;28;20231;-76
2022/06/21 19:53:48;;;;;;;5.23;1.50;;;;;;;25.12;31.24;97377.75;8399466;28;20236;-77
2022/06/21 19:58:18;;;;;;;3.73;1.77;;;;;;;25.04;32.53;97375.16;8398271;28;20227;-77
2022/06/21 20:02:39;;;;;;;3.33;1.43;;;;;;;25.04;32.00;97374.34;8380182;28;20257;-78